Terminal Aerodrome Forecast
Issued by NWS

Home | Current Version | Previous Version | Graphics & Text | Print | Product List | Glossary On
Versions: 1 2 3 4 5 6 7 8 9 10 11 12 13 14 15 16 17 18 19 20 21 22 23
000
FTUS43 KOAX 260907 AAB
TAFCDR
TAF AMD
KCDR 260907Z 2609/2706 04005KT 4SM -SN BR OVC025
      TEMPO 2609/2612 2SM -SN
     FM261200 02006KT P6SM OVC015
     FM261500 07007KT P6SM OVC025=

USA.gov is the U.S. government's official web portal to all federal, state and local government web resources and services.